sensor_id;sensor_type;location;lat;lon;timestamp;P1;durP1;ratioP1;P2;durP2;ratioP2
63201;SDS011;49296;48.188;11.566;2023-02-28T00:00:32;7.03;;;3.63;;
63201;SDS011;49296;48.188;11.566;2023-02-28T00:03:00;7.75;;;4.15;;
63201;SDS011;49296;48.188;11.566;2023-02-28T00:05:28;6.93;;;4.10;;
63201;SDS011;49296;48.188;11.566;2023-02-28T00:07:55;7.50;;;4.07;;
63201;SDS011;49296;48.188;11.566;2023-02-28T00:10:24;11.00;;;4.65;;
63201;SDS011;49296;48.188;11.566;2023-02-28T00:12:52;7.03;;;3.83;;
63201;SDS011;49296;48.188;11.566;2023-02-28T00:15:22;9.18;;;4.57;;
63201;SDS011;49296;48.188;11.566;2023-02-28T00:17:49;6.53;;;4.05;;
63201;SDS011;49296;48.188;11.566;2023-02-28T00:20:16;9.48;;;4.60;;
63201;SDS011;49296;48.188;11.566;2023-02-28T00:22:44;8.60;;;4.63;;
63201;SDS011;49296;48.188;11.566;2023-02-28T00:25:13;7.57;;;3.88;;
63201;SDS011;49296;48.188;11.566;2023-02-28T00:27:44;7.97;;;4.33;;
63201;SDS011;49296;48.188;11.566;2023-02-28T00:30:12;8.88;;;4.55;;
63201;SDS011;49296;48.188;11.566;2023-02-28T00:32:39;8.73;;;4.85;;
63201;SDS011;49296;48.188;11.566;2023-02-28T00:35:06;7.15;;;3.88;;
63201;SDS011;49296;48.188;11.566;2023-02-28T00:37:34;8.63;;;5.07;;
63201;SDS011;49296;48.188;11.566;2023-02-28T00:40:01;7.45;;;4.68;;
63201;SDS011;49296;48.188;11.566;2023-02-28T00:42:29;8.30;;;4.47;;
63201;SDS011;49296;48.188;11.566;2023-02-28T00:44:57;7.18;;;3.85;;
63201;SDS011;49296;48.188;11.566;2023-02-28T00:47:25;8.57;;;4.80;;
63201;SDS011;49296;48.188;11.566;2023-02-28T00:49:54;7.00;;;3.85;;
63201;SDS011;49296;48.188;11.566;2023-02-28T00:52:21;8.60;;;4.50;;
63201;SDS011;49296;48.188;11.566;2023-02-28T00:54:47;8.10;;;4.25;;
63201;SDS011;49296;48.188;11.566;2023-02-28T00:57:14;7.55;;;4.07;;
63201;SDS011;49296;48.188;11.566;2023-02-28T00:59:41;9.65;;;4.43;;
63201;SDS011;49296;48.188;11.566;2023-02-28T01:02:09;8.07;;;4.25;;
63201;SDS011;49296;48.188;11.566;2023-02-28T01:04:35;7.68;;;4.15;;
63201;SDS011;49296;48.188;11.566;2023-02-28T01:07:02;6.70;;;4.35;;
63201;SDS011;49296;48.188;11.566;2023-02-28T01:09:29;8.02;;;4.70;;
63201;SDS011;49296;48.188;11.566;2023-02-28T01:11:55;9.23;;;4.65;;
63201;SDS011;49296;48.188;11.566;2023-02-28T01:14:22;10.48;;;5.25;;
63201;SDS011;49296;48.188;11.566;2023-02-28T01:16:49;8.27;;;3.92;;
63201;SDS011;49296;48.188;11.566;2023-02-28T01:19:18;8.57;;;4.72;;
63201;SDS011;49296;48.188;11.566;2023-02-28T01:21:44;11.57;;;5.57;;
63201;SDS011;49296;48.188;11.566;2023-02-28T01:24:11;9.15;;;4.60;;
63201;SDS011;49296;48.188;11.566;2023-02-28T01:26:39;7.72;;;4.63;;
63201;SDS011;49296;48.188;11.566;2023-02-28T01:29:06;10.20;;;4.90;;
63201;SDS011;49296;48.188;11.566;2023-02-28T01:31:33;8.00;;;4.63;;
63201;SDS011;49296;48.188;11.566;2023-02-28T01:33:59;10.70;;;4.53;;
63201;SDS011;49296;48.188;11.566;2023-02-28T01:36:27;11.68;;;5.18;;
63201;SDS011;49296;48.188;11.566;2023-02-28T01:38:55;12.43;;;4.65;;
63201;SDS011;49296;48.188;11.566;2023-02-28T01:41:22;10.57;;;5.22;;
63201;SDS011;49296;48.188;11.566;2023-02-28T01:43:55;10.00;;;4.82;;
63201;SDS011;49296;48.188;11.566;2023-02-28T01:46:24;9.48;;;5.03;;
63201;SDS011;49296;48.188;11.566;2023-02-28T01:48:51;9.90;;;5.15;;
63201;SDS011;49296;48.188;11.566;2023-02-28T01:51:24;7.75;;;4.20;;
63201;SDS011;49296;48.188;11.566;2023-02-28T01:53:58;7.63;;;4.45;;
63201;SDS011;49296;48.188;11.566;2023-02-28T01:56:28;10.57;;;5.15;;
63201;SDS011;49296;48.188;11.566;2023-02-28T01:58:58;8.70;;;4.60;;
63201;SDS011;49296;48.188;11.566;2023-02-28T02:01:25;7.95;;;4.25;;
63201;SDS011;49296;48.188;11.566;2023-02-28T02:03:54;11.00;;;4.80;;
63201;SDS011;49296;48.188;11.566;2023-02-28T02:06:23;7.35;;;4.07;;
63201;SDS011;49296;48.188;11.566;2023-02-28T02:08:53;9.05;;;4.57;;
63201;SDS011;49296;48.188;11.566;2023-02-28T02:11:20;9.10;;;4.38;;
63201;SDS011;49296;48.188;11.566;2023-02-28T02:13:56;8.98;;;4.60;;
63201;SDS011;49296;48.188;11.566;2023-02-28T02:16:41;10.05;;;4.78;;
63201;SDS011;49296;48.188;11.566;2023-02-28T02:19:29;10.18;;;4.68;;
63201;SDS011;49296;48.188;11.566;2023-02-28T02:22:12;9.63;;;4.70;;
63201;SDS011;49296;48.188;11.566;2023-02-28T02:37:08;8.25;;;4.55;;
63201;SDS011;49296;48.188;11.566;2023-02-28T02:39:44;9.27;;;5.15;;
63201;SDS011;49296;48.188;11.566;2023-02-28T02:42:20;8.85;;;5.25;;
63201;SDS011;49296;48.188;11.566;2023-02-28T02:44:53;9.38;;;4.63;;
63201;SDS011;49296;48.188;11.566;2023-02-28T02:47:27;9.13;;;4.93;;
63201;SDS011;49296;48.188;11.566;2023-02-28T02:49:59;8.80;;;4.68;;
63201;SDS011;49296;48.188;11.566;2023-02-28T02:52:32;8.90;;;5.05;;
63201;SDS011;49296;48.188;11.566;2023-02-28T02:55:05;13.30;;;5.22;;
63201;SDS011;49296;48.188;11.566;2023-02-28T02:57:33;8.98;;;5.05;;
63201;SDS011;49296;48.188;11.566;2023-02-28T03:00:05;7.57;;;4.80;;
63201;SDS011;49296;48.188;11.566;2023-02-28T03:02:33;8.20;;;4.97;;
63201;SDS011;49296;48.188;11.566;2023-02-28T03:05:04;9.70;;;5.07;;
63201;SDS011;49296;48.188;11.566;2023-02-28T03:07:34;10.80;;;4.70;;
63201;SDS011;49296;48.188;11.566;2023-02-28T03:10:01;8.30;;;4.53;;
63201;SDS011;49296;48.188;11.566;2023-02-28T03:12:29;11.50;;;4.88;;
63201;SDS011;49296;48.188;11.566;2023-02-28T03:15:03;9.15;;;4.72;;
63201;SDS011;49296;48.188;11.566;2023-02-28T03:17:40;9.73;;;5.10;;
63201;SDS011;49296;48.188;11.566;2023-02-28T03:20:30;9.52;;;5.15;;
63201;SDS011;49296;48.188;11.566;2023-02-28T03:23:08;9.80;;;4.78;;
63201;SDS011;49296;48.188;11.566;2023-02-28T03:25:43;9.32;;;4.50;;
63201;SDS011;49296;48.188;11.566;2023-02-28T03:28:18;10.60;;;4.97;;
63201;SDS011;49296;48.188;11.566;2023-02-28T03:30:54;11.60;;;5.15;;
63201;SDS011;49296;48.188;11.566;2023-02-28T03:33:26;10.93;;;5.35;;
63201;SDS011;49296;48.188;11.566;2023-02-28T03:35:58;10.45;;;4.90;;
63201;SDS011;49296;48.188;11.566;2023-02-28T03:38:29;10.98;;;5.55;;
63201;SDS011;49296;48.188;11.566;2023-02-28T03:41:01;10.07;;;5.47;;
63201;SDS011;49296;48.188;11.566;2023-02-28T03:43:33;8.68;;;5.05;;
63201;SDS011;49296;48.188;11.566;2023-02-28T03:46:04;11.27;;;5.32;;
63201;SDS011;49296;48.188;11.566;2023-02-28T03:48:36;10.45;;;5.13;;
63201;SDS011;49296;48.188;11.566;2023-02-28T03:51:08;8.88;;;5.35;;
63201;SDS011;49296;48.188;11.566;2023-02-28T03:53:39;11.25;;;5.45;;
63201;SDS011;49296;48.188;11.566;2023-02-28T03:56:16;11.27;;;5.97;;
63201;SDS011;49296;48.188;11.566;2023-02-28T03:58:47;9.57;;;5.78;;
63201;SDS011;49296;48.188;11.566;2023-02-28T04:01:19;11.25;;;6.03;;
63201;SDS011;49296;48.188;11.566;2023-02-28T04:03:48;11.68;;;6.72;;
63201;SDS011;49296;48.188;11.566;2023-02-28T04:06:18;10.65;;;5.78;;
63201;SDS011;49296;48.188;11.566;2023-02-28T04:08:46;13.07;;;6.13;;
63201;SDS011;49296;48.188;11.566;2023-02-28T04:11:16;12.48;;;5.78;;
63201;SDS011;49296;48.188;11.566;2023-02-28T04:13:47;11.52;;;5.78;;
63201;SDS011;49296;48.188;11.566;2023-02-28T04:16:14;13.63;;;6.55;;
63201;SDS011;49296;48.188;11.566;2023-02-28T04:18:40;12.60;;;6.25;;
63201;SDS011;49296;48.188;11.566;2023-02-28T04:21:08;11.50;;;5.95;;
63201;SDS011;49296;48.188;11.566;2023-02-28T04:23:37;13.75;;;6.35;;
63201;SDS011;49296;48.188;11.566;2023-02-28T04:26:04;11.82;;;6.65;;
63201;SDS011;49296;48.188;11.566;2023-02-28T04:28:31;13.07;;;7.10;;
63201;SDS011;49296;48.188;11.566;2023-02-28T04:30:59;14.13;;;6.93;;
63201;SDS011;49296;48.188;11.566;2023-02-28T04:33:27;14.25;;;6.80;;
63201;SDS011;49296;48.188;11.566;2023-02-28T04:35:58;11.25;;;5.95;;
63201;SDS011;49296;48.188;11.566;2023-02-28T04:40:53;12.30;;;5.85;;
63201;SDS011;49296;48.188;11.566;2023-02-28T04:43:20;12.25;;;6.45;;
63201;SDS011;49296;48.188;11.566;2023-02-28T04:45:46;12.55;;;6.00;;
63201;SDS011;49296;48.188;11.566;2023-02-28T04:48:13;14.07;;;6.68;;
63201;SDS011;49296;48.188;11.566;2023-02-28T04:50:40;16.85;;;6.63;;
63201;SDS011;49296;48.188;11.566;2023-02-28T04:53:06;15.98;;;6.80;;
63201;SDS011;49296;48.188;11.566;2023-02-28T04:55:33;10.63;;;6.05;;
63201;SDS011;49296;48.188;11.566;2023-02-28T04:58:01;14.63;;;6.18;;
63201;SDS011;49296;48.188;11.566;2023-02-28T05:00:27;14.82;;;7.65;;
63201;SDS011;49296;48.188;11.566;2023-02-28T05:02:54;10.63;;;5.93;;
63201;SDS011;49296;48.188;11.566;2023-02-28T05:05:21;15.48;;;6.88;;
63201;SDS011;49296;48.188;11.566;2023-02-28T05:07:47;12.88;;;6.97;;
63201;SDS011;49296;48.188;11.566;2023-02-28T05:10:14;16.52;;;7.60;;
63201;SDS011;49296;48.188;11.566;2023-02-28T05:12:41;13.73;;;7.00;;
63201;SDS011;49296;48.188;11.566;2023-02-28T05:15:10;13.57;;;7.00;;
63201;SDS011;49296;48.188;11.566;2023-02-28T05:17:39;13.05;;;7.25;;
63201;SDS011;49296;48.188;11.566;2023-02-28T05:20:06;14.95;;;7.15;;
63201;SDS011;49296;48.188;11.566;2023-02-28T05:22:35;15.85;;;7.07;;
63201;SDS011;49296;48.188;11.566;2023-02-28T05:25:02;14.98;;;8.05;;
63201;SDS011;49296;48.188;11.566;2023-02-28T05:27:30;13.15;;;7.07;;
63201;SDS011;49296;48.188;11.566;2023-02-28T05:29:57;13.50;;;7.90;;
63201;SDS011;49296;48.188;11.566;2023-02-28T05:32:25;16.15;;;7.57;;
63201;SDS011;49296;48.188;11.566;2023-02-28T05:34:52;16.88;;;8.50;;
63201;SDS011;49296;48.188;11.566;2023-02-28T05:37:18;17.02;;;8.23;;
63201;SDS011;49296;48.188;11.566;2023-02-28T05:39:46;17.15;;;8.40;;
63201;SDS011;49296;48.188;11.566;2023-02-28T05:42:12;15.82;;;7.97;;
63201;SDS011;49296;48.188;11.566;2023-02-28T05:44:39;21.27;;;9.90;;
63201;SDS011;49296;48.188;11.566;2023-02-28T05:47:07;17.63;;;8.68;;
63201;SDS011;49296;48.188;11.566;2023-02-28T05:49:35;18.58;;;9.32;;
63201;SDS011;49296;48.188;11.566;2023-02-28T05:52:01;17.17;;;9.23;;
63201;SDS011;49296;48.188;11.566;2023-02-28T05:54:28;16.85;;;8.73;;
63201;SDS011;49296;48.188;11.566;2023-02-28T05:56:54;17.10;;;8.57;;
63201;SDS011;49296;48.188;11.566;2023-02-28T05:59:21;18.02;;;9.52;;
63201;SDS011;49296;48.188;11.566;2023-02-28T06:01:48;16.05;;;9.38;;
63201;SDS011;49296;48.188;11.566;2023-02-28T06:04:15;17.23;;;8.88;;
63201;SDS011;49296;48.188;11.566;2023-02-28T06:06:45;16.67;;;7.93;;
63201;SDS011;49296;48.188;11.566;2023-02-28T06:09:12;20.35;;;10.32;;
63201;SDS011;49296;48.188;11.566;2023-02-28T06:11:39;18.40;;;8.68;;
63201;SDS011;49296;48.188;11.566;2023-02-28T06:14:07;19.02;;;9.18;;
63201;SDS011;49296;48.188;11.566;2023-02-28T06:16:39;20.02;;;9.70;;
63201;SDS011;49296;48.188;11.566;2023-02-28T06:19:06;19.17;;;9.35;;
63201;SDS011;49296;48.188;11.566;2023-02-28T06:21:33;21.00;;;10.07;;
63201;SDS011;49296;48.188;11.566;2023-02-28T06:24:01;19.45;;;9.70;;
63201;SDS011;49296;48.188;11.566;2023-02-28T06:26:28;21.73;;;9.93;;
63201;SDS011;49296;48.188;11.566;2023-02-28T06:28:55;20.92;;;9.85;;
63201;SDS011;49296;48.188;11.566;2023-02-28T06:31:22;17.30;;;9.05;;
63201;SDS011;49296;48.188;11.566;2023-02-28T06:33:50;18.65;;;9.85;;
63201;SDS011;49296;48.188;11.566;2023-02-28T06:36:17;23.70;;;11.05;;
63201;SDS011;49296;48.188;11.566;2023-02-28T06:38:44;18.45;;;9.20;;
63201;SDS011;49296;48.188;11.566;2023-02-28T06:41:17;16.92;;;9.30;;
63201;SDS011;49296;48.188;11.566;2023-02-28T06:43:44;19.55;;;9.88;;
63201;SDS011;49296;48.188;11.566;2023-02-28T06:46:11;17.80;;;9.10;;
63201;SDS011;49296;48.188;11.566;2023-02-28T06:48:39;23.48;;;10.80;;
63201;SDS011;49296;48.188;11.566;2023-02-28T06:51:07;20.45;;;10.32;;
63201;SDS011;49296;48.188;11.566;2023-02-28T06:53:35;23.20;;;10.32;;
63201;SDS011;49296;48.188;11.566;2023-02-28T06:56:03;21.55;;;10.85;;
63201;SDS011;49296;48.188;11.566;2023-02-28T06:58:33;22.75;;;11.00;;
63201;SDS011;49296;48.188;11.566;2023-02-28T07:01:00;19.75;;;10.95;;
63201;SDS011;49296;48.188;11.566;2023-02-28T07:03:27;21.13;;;10.52;;
63201;SDS011;49296;48.188;11.566;2023-02-28T07:05:53;24.65;;;11.45;;
63201;SDS011;49296;48.188;11.566;2023-02-28T07:08:21;21.92;;;11.65;;
63201;SDS011;49296;48.188;11.566;2023-02-28T07:10:51;22.85;;;11.82;;
63201;SDS011;49296;48.188;11.566;2023-02-28T07:13:18;20.83;;;10.52;;
63201;SDS011;49296;48.188;11.566;2023-02-28T07:15:53;23.17;;;10.27;;
63201;SDS011;49296;48.188;11.566;2023-02-28T07:18:20;21.98;;;10.98;;
63201;SDS011;49296;48.188;11.566;2023-02-28T07:20:47;25.05;;;11.25;;
63201;SDS011;49296;48.188;11.566;2023-02-28T07:23:14;23.92;;;11.93;;
63201;SDS011;49296;48.188;11.566;2023-02-28T07:25:41;22.73;;;11.23;;
63201;SDS011;49296;48.188;11.566;2023-02-28T07:28:08;25.45;;;12.52;;
63201;SDS011;49296;48.188;11.566;2023-02-28T07:30:35;23.92;;;12.55;;
63201;SDS011;49296;48.188;11.566;2023-02-28T07:33:03;26.15;;;13.38;;
63201;SDS011;49296;48.188;11.566;2023-02-28T07:35:29;24.60;;;12.95;;
63201;SDS011;49296;48.188;11.566;2023-02-28T07:37:56;25.08;;;12.85;;
63201;SDS011;49296;48.188;11.566;2023-02-28T07:40:23;26.17;;;12.20;;
63201;SDS011;49296;48.188;11.566;2023-02-28T07:42:50;23.40;;;12.93;;
63201;SDS011;49296;48.188;11.566;2023-02-28T07:45:17;22.60;;;11.88;;
63201;SDS011;49296;48.188;11.566;2023-02-28T07:47:44;25.70;;;12.80;;
63201;SDS011;49296;48.188;11.566;2023-02-28T07:50:13;25.92;;;12.77;;
63201;SDS011;49296;48.188;11.566;2023-02-28T07:52:41;24.15;;;12.55;;
63201;SDS011;49296;48.188;11.566;2023-02-28T07:55:08;25.25;;;11.88;;
63201;SDS011;49296;48.188;11.566;2023-02-28T07:57:35;23.95;;;12.50;;
63201;SDS011;49296;48.188;11.566;2023-02-28T08:00:02;23.75;;;12.85;;
63201;SDS011;49296;48.188;11.566;2023-02-28T08:02:29;21.10;;;12.07;;
63201;SDS011;49296;48.188;11.566;2023-02-28T08:04:56;26.40;;;12.73;;
63201;SDS011;49296;48.188;11.566;2023-02-28T08:07:24;26.23;;;13.43;;
63201;SDS011;49296;48.188;11.566;2023-02-28T08:09:51;23.00;;;11.50;;
63201;SDS011;49296;48.188;11.566;2023-02-28T08:12:17;25.42;;;12.45;;
63201;SDS011;49296;48.188;11.566;2023-02-28T08:14:44;23.17;;;12.70;;
63201;SDS011;49296;48.188;11.566;2023-02-28T08:17:11;23.60;;;12.68;;
63201;SDS011;49296;48.188;11.566;2023-02-28T08:19:37;26.73;;;13.68;;
63201;SDS011;49296;48.188;11.566;2023-02-28T08:22:04;23.63;;;12.23;;
63201;SDS011;49296;48.188;11.566;2023-02-28T08:24:32;27.08;;;14.05;;
63201;SDS011;49296;48.188;11.566;2023-02-28T08:26:59;24.52;;;13.73;;
63201;SDS011;49296;48.188;11.566;2023-02-28T08:29:27;27.85;;;14.80;;
63201;SDS011;49296;48.188;11.566;2023-02-28T08:31:55;27.15;;;13.30;;
63201;SDS011;49296;48.188;11.566;2023-02-28T08:34:22;29.00;;;12.77;;
63201;SDS011;49296;48.188;11.566;2023-02-28T08:36:48;32.03;;;14.90;;
63201;SDS011;49296;48.188;11.566;2023-02-28T08:39:15;27.17;;;14.23;;
63201;SDS011;49296;48.188;11.566;2023-02-28T08:41:43;26.67;;;13.65;;
63201;SDS011;49296;48.188;11.566;2023-02-28T08:44:10;27.90;;;14.57;;
63201;SDS011;49296;48.188;11.566;2023-02-28T08:46:37;26.80;;;13.20;;
63201;SDS011;49296;48.188;11.566;2023-02-28T08:49:04;24.75;;;13.13;;
63201;SDS011;49296;48.188;11.566;2023-02-28T08:51:32;27.02;;;13.95;;
63201;SDS011;49296;48.188;11.566;2023-02-28T08:53:59;25.25;;;13.77;;
63201;SDS011;49296;48.188;11.566;2023-02-28T08:56:27;29.48;;;14.48;;
63201;SDS011;49296;48.188;11.566;2023-02-28T08:58:56;31.80;;;14.07;;
63201;SDS011;49296;48.188;11.566;2023-02-28T09:01:24;28.52;;;14.68;;
63201;SDS011;49296;48.188;11.566;2023-02-28T09:03:53;25.90;;;14.55;;
63201;SDS011;49296;48.188;11.566;2023-02-28T09:06:21;28.20;;;15.30;;
63201;SDS011;49296;48.188;11.566;2023-02-28T09:08:49;28.58;;;14.63;;
63201;SDS011;49296;48.188;11.566;2023-02-28T09:11:16;29.38;;;14.43;;
63201;SDS011;49296;48.188;11.566;2023-02-28T09:13:44;29.15;;;15.07;;
63201;SDS011;49296;48.188;11.566;2023-02-28T09:16:14;24.38;;;13.45;;
63201;SDS011;49296;48.188;11.566;2023-02-28T09:18:42;28.57;;;14.97;;
63201;SDS011;49296;48.188;11.566;2023-02-28T09:21:09;25.33;;;13.90;;
63201;SDS011;49296;48.188;11.566;2023-02-28T09:23:39;27.52;;;14.43;;
63201;SDS011;49296;48.188;11.566;2023-02-28T09:26:06;27.02;;;14.10;;
63201;SDS011;49296;48.188;11.566;2023-02-28T09:28:34;25.50;;;13.18;;
63201;SDS011;49296;48.188;11.566;2023-02-28T09:31:00;26.13;;;14.20;;
63201;SDS011;49296;48.188;11.566;2023-02-28T09:33:31;25.42;;;14.25;;
63201;SDS011;49296;48.188;11.566;2023-02-28T09:35:59;25.23;;;13.55;;
63201;SDS011;49296;48.188;11.566;2023-02-28T09:38:27;29.10;;;15.75;;
63201;SDS011;49296;48.188;11.566;2023-02-28T09:40:55;31.95;;;14.88;;
63201;SDS011;49296;48.188;11.566;2023-02-28T09:43:25;29.38;;;14.93;;
63201;SDS011;49296;48.188;11.566;2023-02-28T09:45:55;25.13;;;14.35;;
63201;SDS011;49296;48.188;11.566;2023-02-28T09:50:59;27.95;;;14.45;;
63201;SDS011;49296;48.188;11.566;2023-02-28T09:53:29;28.60;;;13.35;;
63201;SDS011;49296;48.188;11.566;2023-02-28T09:55:59;26.33;;;12.97;;
63201;SDS011;49296;48.188;11.566;2023-02-28T09:58:31;24.80;;;13.90;;
63201;SDS011;49296;48.188;11.566;2023-02-28T10:01:03;28.20;;;13.68;;
63201;SDS011;49296;48.188;11.566;2023-02-28T10:03:39;24.23;;;13.05;;
63201;SDS011;49296;48.188;11.566;2023-02-28T10:06:11;27.58;;;14.55;;
63201;SDS011;49296;48.188;11.566;2023-02-28T10:08:44;25.90;;;13.30;;
63201;SDS011;49296;48.188;11.566;2023-02-28T10:11:16;25.83;;;14.10;;
63201;SDS011;49296;48.188;11.566;2023-02-28T10:13:48;23.88;;;14.05;;
63201;SDS011;49296;48.188;11.566;2023-02-28T10:16:22;26.80;;;14.73;;
63201;SDS011;49296;48.188;11.566;2023-02-28T10:18:56;26.83;;;14.18;;
63201;SDS011;49296;48.188;11.566;2023-02-28T10:21:28;27.45;;;14.50;;
63201;SDS011;49296;48.188;11.566;2023-02-28T10:24:01;25.05;;;13.63;;
63201;SDS011;49296;48.188;11.566;2023-02-28T10:26:31;28.10;;;14.20;;
63201;SDS011;49296;48.188;11.566;2023-02-28T10:28:59;28.25;;;13.65;;
63201;SDS011;49296;48.188;11.566;2023-02-28T10:31:26;27.02;;;14.45;;
63201;SDS011;49296;48.188;11.566;2023-02-28T10:33:52;30.73;;;15.45;;
63201;SDS011;49296;48.188;11.566;2023-02-28T10:36:20;27.90;;;15.07;;
63201;SDS011;49296;48.188;11.566;2023-02-28T10:38:49;25.67;;;13.95;;
63201;SDS011;49296;48.188;11.566;2023-02-28T10:41:17;23.10;;;13.93;;
63201;SDS011;49296;48.188;11.566;2023-02-28T10:43:53;26.40;;;13.50;;
63201;SDS011;49296;48.188;11.566;2023-02-28T10:46:39;31.67;;;14.25;;
63201;SDS011;49296;48.188;11.566;2023-02-28T10:49:11;24.63;;;14.70;;
63201;SDS011;49296;48.188;11.566;2023-02-28T10:51:40;26.13;;;13.32;;
63201;SDS011;49296;48.188;11.566;2023-02-28T10:54:16;28.20;;;14.02;;
63201;SDS011;49296;48.188;11.566;2023-02-28T10:56:45;28.58;;;15.88;;
63201;SDS011;49296;48.188;11.566;2023-02-28T10:59:23;26.38;;;14.02;;
63201;SDS011;49296;48.188;11.566;2023-02-28T11:01:53;25.50;;;13.48;;
63201;SDS011;49296;48.188;11.566;2023-02-28T11:04:32;26.70;;;14.55;;
63201;SDS011;49296;48.188;11.566;2023-02-28T11:07:03;23.05;;;13.48;;
63201;SDS011;49296;48.188;11.566;2023-02-28T11:09:46;26.63;;;14.55;;
63201;SDS011;49296;48.188;11.566;2023-02-28T11:12:21;27.00;;;14.18;;
63201;SDS011;49296;48.188;11.566;2023-02-28T11:14:54;28.73;;;15.18;;
63201;SDS011;49296;48.188;11.566;2023-02-28T11:17:23;29.67;;;14.57;;
63201;SDS011;49296;48.188;11.566;2023-02-28T11:19:52;26.65;;;13.80;;
63201;SDS011;49296;48.188;11.566;2023-02-28T11:22:22;23.35;;;13.45;;
63201;SDS011;49296;48.188;11.566;2023-02-28T11:24:55;28.88;;;15.52;;
63201;SDS011;49296;48.188;11.566;2023-02-28T11:27:45;26.70;;;14.38;;
63201;SDS011;49296;48.188;11.566;2023-02-28T11:33:00;25.90;;;14.57;;
63201;SDS011;49296;48.188;11.566;2023-02-28T11:35:44;25.80;;;13.05;;
63201;SDS011;49296;48.188;11.566;2023-02-28T11:38:14;26.52;;;14.65;;
63201;SDS011;49296;48.188;11.566;2023-02-28T11:40:43;23.75;;;13.90;;
63201;SDS011;49296;48.188;11.566;2023-02-28T11:43:22;26.13;;;13.48;;
63201;SDS011;49296;48.188;11.566;2023-02-28T11:48:37;25.65;;;13.90;;
63201;SDS011;49296;48.188;11.566;2023-02-28T11:51:17;22.05;;;13.02;;
63201;SDS011;49296;48.188;11.566;2023-02-28T11:53:53;23.58;;;12.95;;
63201;SDS011;49296;48.188;11.566;2023-02-28T11:56:33;23.33;;;12.68;;
63201;SDS011;49296;48.188;11.566;2023-02-28T11:59:11;25.20;;;14.07;;
63201;SDS011;49296;48.188;11.566;2023-02-28T12:01:52;24.67;;;12.40;;
63201;SDS011;49296;48.188;11.566;2023-02-28T12:04:33;23.85;;;13.55;;
63201;SDS011;49296;48.188;11.566;2023-02-28T12:07:08;25.10;;;12.82;;
63201;SDS011;49296;48.188;11.566;2023-02-28T12:09:43;23.40;;;12.57;;
63201;SDS011;49296;48.188;11.566;2023-02-28T12:14:56;22.33;;;12.98;;
63201;SDS011;49296;48.188;11.566;2023-02-28T12:17:46;25.45;;;12.13;;
63201;SDS011;49296;48.188;11.566;2023-02-28T12:20:24;24.27;;;12.88;;
63201;SDS011;49296;48.188;11.566;2023-02-28T12:23:00;23.30;;;12.98;;
63201;SDS011;49296;48.188;11.566;2023-02-28T12:25:52;21.65;;;11.57;;
63201;SDS011;49296;48.188;11.566;2023-02-28T12:28:37;23.90;;;12.55;;
63201;SDS011;49296;48.188;11.566;2023-02-28T12:31:09;22.88;;;12.73;;
63201;SDS011;49296;48.188;11.566;2023-02-28T12:33:44;23.02;;;12.80;;
63201;SDS011;49296;48.188;11.566;2023-02-28T12:36:17;22.27;;;12.32;;
63201;SDS011;49296;48.188;11.566;2023-02-28T12:38:47;25.48;;;12.75;;
63201;SDS011;49296;48.188;11.566;2023-02-28T12:41:20;26.58;;;11.88;;
63201;SDS011;49296;48.188;11.566;2023-02-28T12:43:55;24.60;;;12.57;;
63201;SDS011;49296;48.188;11.566;2023-02-28T12:46:29;24.10;;;12.30;;
63201;SDS011;49296;48.188;11.566;2023-02-28T12:49:00;24.27;;;13.80;;
63201;SDS011;49296;48.188;11.566;2023-02-28T12:51:31;24.23;;;13.00;;
63201;SDS011;49296;48.188;11.566;2023-02-28T12:54:04;22.52;;;12.00;;
63201;SDS011;49296;48.188;11.566;2023-02-28T12:56:38;23.67;;;12.80;;
63201;SDS011;49296;48.188;11.566;2023-02-28T12:59:14;20.75;;;11.52;;
63201;SDS011;49296;48.188;11.566;2023-02-28T13:01:55;23.33;;;13.52;;
63201;SDS011;49296;48.188;11.566;2023-02-28T13:07:30;20.85;;;11.32;;
63201;SDS011;49296;48.188;11.566;2023-02-28T13:10:15;25.60;;;12.43;;
63201;SDS011;49296;48.188;11.566;2023-02-28T13:12:47;24.58;;;13.13;;
63201;SDS011;49296;48.188;11.566;2023-02-28T13:15:18;22.15;;;11.82;;
63201;SDS011;49296;48.188;11.566;2023-02-28T13:17:49;23.85;;;12.80;;
63201;SDS011;49296;48.188;11.566;2023-02-28T13:20:18;21.92;;;12.68;;
63201;SDS011;49296;48.188;11.566;2023-02-28T13:22:47;20.27;;;12.20;;
63201;SDS011;49296;48.188;11.566;2023-02-28T13:32:08;20.02;;;11.88;;
63201;SDS011;49296;48.188;11.566;2023-02-28T13:34:41;23.60;;;12.07;;
63201;SDS011;49296;48.188;11.566;2023-02-28T13:37:32;19.50;;;11.90;;
63201;SDS011;49296;48.188;11.566;2023-02-28T13:43:02;22.45;;;12.20;;
63201;SDS011;49296;48.188;11.566;2023-02-28T13:45:29;23.33;;;12.38;;
63201;SDS011;49296;48.188;11.566;2023-02-28T13:48:04;23.08;;;13.02;;
63201;SDS011;49296;48.188;11.566;2023-02-28T13:50:42;22.75;;;12.60;;
63201;SDS011;49296;48.188;11.566;2023-02-28T13:53:30;22.15;;;12.35;;
63201;SDS011;49296;48.188;11.566;2023-02-28T13:56:10;25.67;;;12.68;;
63201;SDS011;49296;48.188;11.566;2023-02-28T13:58:52;21.25;;;11.18;;
63201;SDS011;49296;48.188;11.566;2023-02-28T14:01:23;22.77;;;12.70;;
63201;SDS011;49296;48.188;11.566;2023-02-28T14:04:09;23.25;;;12.25;;
63201;SDS011;49296;48.188;11.566;2023-02-28T14:06:50;22.92;;;12.88;;
63201;SDS011;49296;48.188;11.566;2023-02-28T14:09:21;22.25;;;12.30;;
63201;SDS011;49296;48.188;11.566;2023-02-28T14:11:51;24.38;;;12.35;;
63201;SDS011;49296;48.188;11.566;2023-02-28T14:17:27;24.75;;;13.15;;
63201;SDS011;49296;48.188;11.566;2023-02-28T14:19:56;23.65;;;12.60;;
63201;SDS011;49296;48.188;11.566;2023-02-28T14:22:39;18.05;;;11.15;;
63201;SDS011;49296;48.188;11.566;2023-02-28T14:25:20;20.83;;;11.80;;
63201;SDS011;49296;48.188;11.566;2023-02-28T14:27:57;21.88;;;12.32;;
63201;SDS011;49296;48.188;11.566;2023-02-28T14:30:51;24.50;;;12.77;;
63201;SDS011;49296;48.188;11.566;2023-02-28T14:33:30;19.55;;;11.65;;
63201;SDS011;49296;48.188;11.566;2023-02-28T14:36:09;23.02;;;11.35;;
63201;SDS011;49296;48.188;11.566;2023-02-28T14:38:42;22.88;;;11.82;;
63201;SDS011;49296;48.188;11.566;2023-02-28T14:41:14;20.40;;;12.13;;
63201;SDS011;49296;48.188;11.566;2023-02-28T14:43:53;32.20;;;17.48;;
63201;SDS011;49296;48.188;11.566;2023-02-28T14:46:22;25.15;;;13.55;;
63201;SDS011;49296;48.188;11.566;2023-02-28T14:48:53;22.50;;;11.77;;
63201;SDS011;49296;48.188;11.566;2023-02-28T14:51:22;22.23;;;11.82;;
63201;SDS011;49296;48.188;11.566;2023-02-28T14:53:51;25.10;;;12.00;;
63201;SDS011;49296;48.188;11.566;2023-02-28T14:56:23;21.52;;;11.32;;
63201;SDS011;49296;48.188;11.566;2023-02-28T14:58:53;22.42;;;11.98;;
63201;SDS011;49296;48.188;11.566;2023-02-28T15:01:22;32.35;;;13.48;;
63201;SDS011;49296;48.188;11.566;2023-02-28T15:03:56;21.25;;;12.23;;
63201;SDS011;49296;48.188;11.566;2023-02-28T15:06:28;24.27;;;11.85;;
63201;SDS011;49296;48.188;11.566;2023-02-28T15:11:45;23.35;;;11.15;;
63201;SDS011;49296;48.188;11.566;2023-02-28T15:14:18;19.60;;;10.73;;
63201;SDS011;49296;48.188;11.566;2023-02-28T15:16:47;22.20;;;10.95;;
63201;SDS011;49296;48.188;11.566;2023-02-28T15:19:20;19.08;;;11.23;;